sensor_id;sensor_type;location;lat;lon;timestamp;P1;durP1;ratioP1;P2;durP2;ratioP2
40555;SDS011;26250;45.422;11.100;2023-02-03T11:49:22;173.25;;;131.05;;
40555;SDS011;26250;45.422;11.100;2023-02-03T12:03:32;193.18;;;133.43;;
40555;SDS011;26250;45.422;11.100;2023-02-03T12:09:09;193.55;;;145.02;;
40555;SDS011;26250;45.422;11.100;2023-02-03T12:26:21;199.18;;;140.43;;
40555;SDS011;26250;45.422;11.100;2023-02-03T12:32:01;185.77;;;139.50;;
40555;SDS011;26250;45.422;11.100;2023-02-03T12:34:33;178.43;;;135.18;;
40555;SDS011;26250;45.422;11.100;2023-02-03T12:37:05;193.77;;;137.25;;
40555;SDS011;26250;45.422;11.100;2023-02-03T12:39:40;191.75;;;140.90;;
40555;SDS011;26250;45.422;11.100;2023-02-03T12:42:31;190.30;;;135.70;;
40555;SDS011;26250;45.422;11.100;2023-02-03T12:45:04;196.52;;;141.38;;
40555;SDS011;26250;45.422;11.100;2023-02-03T12:47:42;174.35;;;136.43;;
40555;SDS011;26250;45.422;11.100;2023-02-03T12:50:17;190.65;;;140.18;;
40555;SDS011;26250;45.422;11.100;2023-02-03T12:52:50;195.48;;;139.85;;
40555;SDS011;26250;45.422;11.100;2023-02-03T12:57:53;207.27;;;141.18;;
40555;SDS011;26250;45.422;11.100;2023-02-03T13:00:43;181.63;;;139.88;;
40555;SDS011;26250;45.422;11.100;2023-02-03T13:08:45;173.15;;;133.88;;
40555;SDS011;26250;45.422;11.100;2023-02-03T13:11:28;168.35;;;128.48;;
40555;SDS011;26250;45.422;11.100;2023-02-03T13:14:19;186.02;;;134.43;;
40555;SDS011;26250;45.422;11.100;2023-02-03T13:16:54;184.50;;;140.50;;
40555;SDS011;26250;45.422;11.100;2023-02-03T13:19:28;188.80;;;137.05;;
40555;SDS011;26250;45.422;11.100;2023-02-03T13:22:11;188.93;;;135.32;;
40555;SDS011;26250;45.422;11.100;2023-02-03T13:24:42;188.65;;;140.52;;
40555;SDS011;26250;45.422;11.100;2023-02-03T13:27:24;199.43;;;140.52;;
40555;SDS011;26250;45.422;11.100;2023-02-03T13:30:22;188.35;;;144.07;;
40555;SDS011;26250;45.422;11.100;2023-02-03T13:33:19;183.18;;;143.35;;
40555;SDS011;26250;45.422;11.100;2023-02-03T13:36:31;183.35;;;139.02;;
40555;SDS011;26250;45.422;11.100;2023-02-03T13:44:21;206.73;;;144.75;;
40555;SDS011;26250;45.422;11.100;2023-02-03T13:46:57;214.65;;;143.38;;
40555;SDS011;26250;45.422;11.100;2023-02-03T13:49:29;182.07;;;137.38;;
40555;SDS011;26250;45.422;11.100;2023-02-03T13:51:58;180.80;;;137.77;;
40555;SDS011;26250;45.422;11.100;2023-02-03T13:54:32;201.90;;;139.68;;
40555;SDS011;26250;45.422;11.100;2023-02-03T13:57:01;169.20;;;134.57;;
40555;SDS011;26250;45.422;11.100;2023-02-03T14:04:50;169.30;;;134.50;;
40555;SDS011;26250;45.422;11.100;2023-02-03T14:25:31;200.93;;;139.70;;
40555;SDS011;26250;45.422;11.100;2023-02-03T14:28:06;182.82;;;136.43;;
40555;SDS011;26250;45.422;11.100;2023-02-03T14:31:22;184.00;;;133.50;;
40555;SDS011;26250;45.422;11.100;2023-02-03T14:34:11;168.02;;;130.88;;
40555;SDS011;26250;45.422;11.100;2023-02-03T14:36:28;183.15;;;136.43;;
40555;SDS011;26250;45.422;11.100;2023-02-03T14:39:01;167.95;;;134.65;;
40555;SDS011;26250;45.422;11.100;2023-02-03T14:44:21;173.45;;;127.22;;
40555;SDS011;26250;45.422;11.100;2023-02-03T14:47:09;188.45;;;132.27;;
40555;SDS011;26250;45.422;11.100;2023-02-03T14:50:03;171.80;;;130.43;;
40555;SDS011;26250;45.422;11.100;2023-02-03T15:00:57;175.15;;;129.07;;
40555;SDS011;26250;45.422;11.100;2023-02-03T15:03:24;183.68;;;134.25;;
40555;SDS011;26250;45.422;11.100;2023-02-03T15:06:04;172.07;;;130.27;;
40555;SDS011;26250;45.422;11.100;2023-02-03T15:08:33;183.55;;;132.63;;
40555;SDS011;26250;45.422;11.100;2023-02-03T15:11:22;159.50;;;125.88;;
40555;SDS011;26250;45.422;11.100;2023-02-03T15:13:52;171.35;;;126.50;;
40555;SDS011;26250;45.422;11.100;2023-02-03T15:16:21;169.63;;;122.53;;
40555;SDS011;26250;45.422;11.100;2023-02-03T15:18:59;162.45;;;121.93;;
40555;SDS011;26250;45.422;11.100;2023-02-03T15:21:32;169.90;;;124.95;;
40555;SDS011;26250;45.422;11.100;2023-02-03T15:24:14;180.00;;;127.70;;
40555;SDS011;26250;45.422;11.100;2023-02-03T15:26:45;170.27;;;127.20;;
40555;SDS011;26250;45.422;11.100;2023-02-03T15:29:21;181.43;;;126.07;;
40555;SDS011;26250;45.422;11.100;2023-02-03T15:31:56;152.63;;;120.72;;
40555;SDS011;26250;45.422;11.100;2023-02-03T15:34:35;165.43;;;120.70;;
40555;SDS011;26250;45.422;11.100;2023-02-03T15:37:08;168.70;;;128.88;;
40555;SDS011;26250;45.422;11.100;2023-02-03T15:40:00;177.23;;;126.00;;
40555;SDS011;26250;45.422;11.100;2023-02-03T15:42:36;165.98;;;121.60;;
40555;SDS011;26250;45.422;11.100;2023-02-03T15:48:01;177.60;;;127.55;;
40555;SDS011;26250;45.422;11.100;2023-02-03T15:50:44;152.02;;;118.57;;
40555;SDS011;26250;45.422;11.100;2023-02-03T15:53:19;160.10;;;119.22;;
40555;SDS011;26250;45.422;11.100;2023-02-03T15:56:16;149.68;;;118.00;;
40555;SDS011;26250;45.422;11.100;2023-02-03T15:58:48;166.50;;;122.97;;
40555;SDS011;26250;45.422;11.100;2023-02-03T16:01:18;162.50;;;123.40;;
40555;SDS011;26250;45.422;11.100;2023-02-03T16:03:49;179.70;;;130.23;;
40555;SDS011;26250;45.422;11.100;2023-02-03T16:06:20;170.75;;;127.55;;
40555;SDS011;26250;45.422;11.100;2023-02-03T16:08:56;173.20;;;131.15;;
40555;SDS011;26250;45.422;11.100;2023-02-03T16:11:31;174.10;;;134.07;;
40555;SDS011;26250;45.422;11.100;2023-02-03T16:14:06;177.35;;;128.35;;
40555;SDS011;26250;45.422;11.100;2023-02-03T16:16:37;170.77;;;129.52;;
40555;SDS011;26250;45.422;11.100;2023-02-03T16:19:20;183.85;;;131.00;;
40555;SDS011;26250;45.422;11.100;2023-02-03T16:29:53;194.93;;;141.02;;
40555;SDS011;26250;45.422;11.100;2023-02-03T16:35:53;198.93;;;140.73;;
40555;SDS011;26250;45.422;11.100;2023-02-03T16:38:45;187.27;;;135.40;;
40555;SDS011;26250;45.422;11.100;2023-02-03T16:41:32;165.85;;;126.60;;
40555;SDS011;26250;45.422;11.100;2023-02-03T16:44:19;178.93;;;133.20;;
40555;SDS011;26250;45.422;11.100;2023-02-03T16:47:20;174.10;;;135.95;;
40555;SDS011;26250;45.422;11.100;2023-02-03T16:50:11;152.93;;;115.43;;
40555;SDS011;26250;45.422;11.100;2023-02-03T16:53:05;170.55;;;123.80;;
40555;SDS011;26250;45.422;11.100;2023-02-03T16:55:36;178.37;;;124.03;;
40555;SDS011;26250;45.422;11.100;2023-02-03T16:58:03;167.82;;;119.95;;
40555;SDS011;26250;45.422;11.100;2023-02-03T17:00:30;150.70;;;124.43;;
40555;SDS011;26250;45.422;11.100;2023-02-03T17:03:02;186.40;;;132.00;;
40555;SDS011;26250;45.422;11.100;2023-02-03T17:05:29;197.23;;;134.75;;
40555;SDS011;26250;45.422;11.100;2023-02-03T17:07:57;176.98;;;130.98;;
40555;SDS011;26250;45.422;11.100;2023-02-03T17:10:24;181.55;;;133.15;;
40555;SDS011;26250;45.422;11.100;2023-02-03T17:12:53;170.75;;;131.48;;
40555;SDS011;26250;45.422;11.100;2023-02-03T17:15:20;194.52;;;136.70;;
40555;SDS011;26250;45.422;11.100;2023-02-03T17:17:47;181.95;;;132.60;;
40555;SDS011;26250;45.422;11.100;2023-02-03T17:20:14;174.55;;;132.68;;
40555;SDS011;26250;45.422;11.100;2023-02-03T17:22:41;192.93;;;133.88;;
40555;SDS011;26250;45.422;11.100;2023-02-03T17:25:07;178.60;;;131.52;;
40555;SDS011;26250;45.422;11.100;2023-02-03T17:27:34;182.60;;;133.45;;
40555;SDS011;26250;45.422;11.100;2023-02-03T17:30:02;185.45;;;136.20;;
40555;SDS011;26250;45.422;11.100;2023-02-03T17:32:29;184.88;;;138.40;;
40555;SDS011;26250;45.422;11.100;2023-02-03T17:34:56;200.88;;;142.75;;
40555;SDS011;26250;45.422;11.100;2023-02-03T17:37:25;179.80;;;139.27;;
40555;SDS011;26250;45.422;11.100;2023-02-03T17:39:52;180.07;;;128.45;;
40555;SDS011;26250;45.422;11.100;2023-02-03T17:42:36;166.68;;;124.93;;
40555;SDS011;26250;45.422;11.100;2023-02-03T17:45:21;175.25;;;135.35;;
40555;SDS011;26250;45.422;11.100;2023-02-03T17:48:05;181.05;;;133.38;;
40555;SDS011;26250;45.422;11.100;2023-02-03T17:50:50;169.43;;;124.47;;
40555;SDS011;26250;45.422;11.100;2023-02-03T17:53:38;163.13;;;125.78;;
40555;SDS011;26250;45.422;11.100;2023-02-03T17:56:09;185.43;;;136.15;;
40555;SDS011;26250;45.422;11.100;2023-02-03T17:58:38;193.35;;;139.63;;
40555;SDS011;26250;45.422;11.100;2023-02-03T18:01:16;192.55;;;137.15;;
40555;SDS011;26250;45.422;11.100;2023-02-03T18:03:45;204.93;;;143.55;;
40555;SDS011;26250;45.422;11.100;2023-02-03T18:06:14;170.85;;;126.10;;
40555;SDS011;26250;45.422;11.100;2023-02-03T18:08:43;172.57;;;128.50;;
40555;SDS011;26250;45.422;11.100;2023-02-03T18:11:11;186.52;;;136.90;;
40555;SDS011;26250;45.422;11.100;2023-02-03T18:13:40;185.80;;;135.63;;
40555;SDS011;26250;45.422;11.100;2023-02-03T18:16:10;186.95;;;132.23;;
40555;SDS011;26250;45.422;11.100;2023-02-03T18:18:41;194.70;;;136.20;;
40555;SDS011;26250;45.422;11.100;2023-02-03T18:21:09;170.43;;;133.80;;
40555;SDS011;26250;45.422;11.100;2023-02-03T18:23:38;205.50;;;139.27;;
40555;SDS011;26250;45.422;11.100;2023-02-03T18:26:06;197.32;;;142.57;;
40555;SDS011;26250;45.422;11.100;2023-02-03T18:28:35;198.70;;;140.80;;
40555;SDS011;26250;45.422;11.100;2023-02-03T18:33:35;206.60;;;142.85;;
40555;SDS011;26250;45.422;11.100;2023-02-03T18:36:03;186.25;;;137.98;;
40555;SDS011;26250;45.422;11.100;2023-02-03T18:38:31;176.50;;;128.65;;
40555;SDS011;26250;45.422;11.100;2023-02-03T18:41:06;183.93;;;131.45;;
40555;SDS011;26250;45.422;11.100;2023-02-03T18:43:34;185.73;;;134.23;;
40555;SDS011;26250;45.422;11.100;2023-02-03T18:46:06;186.27;;;139.65;;
40555;SDS011;26250;45.422;11.100;2023-02-03T18:48:34;201.15;;;143.65;;
40555;SDS011;26250;45.422;11.100;2023-02-03T18:51:02;198.23;;;145.18;;
40555;SDS011;26250;45.422;11.100;2023-02-03T18:53:32;193.95;;;139.63;;
40555;SDS011;26250;45.422;11.100;2023-02-03T18:55:59;186.07;;;136.43;;
40555;SDS011;26250;45.422;11.100;2023-02-03T18:58:26;190.77;;;137.60;;
40555;SDS011;26250;45.422;11.100;2023-02-03T19:00:56;194.35;;;141.32;;
40555;SDS011;26250;45.422;11.100;2023-02-03T19:03:24;200.38;;;146.18;;
40555;SDS011;26250;45.422;11.100;2023-02-03T19:05:52;203.90;;;144.77;;
40555;SDS011;26250;45.422;11.100;2023-02-03T19:08:19;186.25;;;143.50;;
40555;SDS011;26250;45.422;11.100;2023-02-03T19:10:49;179.43;;;139.40;;
40555;SDS011;26250;45.422;11.100;2023-02-03T19:13:17;182.40;;;137.88;;
40555;SDS011;26250;45.422;11.100;2023-02-03T19:15:45;183.10;;;129.52;;
40555;SDS011;26250;45.422;11.100;2023-02-03T19:18:14;177.65;;;130.32;;
40555;SDS011;26250;45.422;11.100;2023-02-03T19:20:42;179.20;;;133.15;;
40555;SDS011;26250;45.422;11.100;2023-02-03T19:23:12;189.65;;;139.80;;
40555;SDS011;26250;45.422;11.100;2023-02-03T19:25:39;188.95;;;144.25;;
40555;SDS011;26250;45.422;11.100;2023-02-03T19:28:07;198.60;;;141.27;;
40555;SDS011;26250;45.422;11.100;2023-02-03T19:30:43;195.75;;;140.02;;
40555;SDS011;26250;45.422;11.100;2023-02-03T19:33:10;201.00;;;145.88;;
40555;SDS011;26250;45.422;11.100;2023-02-03T19:35:37;206.23;;;147.55;;
40555;SDS011;26250;45.422;11.100;2023-02-03T19:38:04;194.57;;;147.32;;
40555;SDS011;26250;45.422;11.100;2023-02-03T19:40:31;193.32;;;147.63;;
40555;SDS011;26250;45.422;11.100;2023-02-03T19:42:58;184.45;;;146.38;;
40555;SDS011;26250;45.422;11.100;2023-02-03T19:45:25;184.48;;;144.40;;
40555;SDS011;26250;45.422;11.100;2023-02-03T19:47:52;183.43;;;145.73;;
40555;SDS011;26250;45.422;11.100;2023-02-03T19:50:19;205.20;;;146.82;;
40555;SDS011;26250;45.422;11.100;2023-02-03T19:52:46;187.57;;;145.82;;
40555;SDS011;26250;45.422;11.100;2023-02-03T19:55:17;204.13;;;146.82;;
40555;SDS011;26250;45.422;11.100;2023-02-03T19:57:43;201.65;;;149.52;;
40555;SDS011;26250;45.422;11.100;2023-02-03T20:00:10;189.52;;;146.20;;
40555;SDS011;26250;45.422;11.100;2023-02-03T20:02:42;212.20;;;144.43;;
40555;SDS011;26250;45.422;11.100;2023-02-03T20:05:09;198.75;;;143.88;;
40555;SDS011;26250;45.422;11.100;2023-02-03T20:07:36;178.20;;;140.13;;
40555;SDS011;26250;45.422;11.100;2023-02-03T20:10:03;192.15;;;135.60;;
40555;SDS011;26250;45.422;11.100;2023-02-03T20:12:30;202.25;;;139.85;;
40555;SDS011;26250;45.422;11.100;2023-02-03T20:14:57;193.48;;;136.68;;
40555;SDS011;26250;45.422;11.100;2023-02-03T20:17:26;184.85;;;132.88;;
40555;SDS011;26250;45.422;11.100;2023-02-03T20:19:54;175.02;;;135.18;;
40555;SDS011;26250;45.422;11.100;2023-02-03T20:22:21;195.43;;;136.40;;
40555;SDS011;26250;45.422;11.100;2023-02-03T20:24:48;180.85;;;134.07;;
40555;SDS011;26250;45.422;11.100;2023-02-03T20:27:15;186.32;;;136.57;;
40555;SDS011;26250;45.422;11.100;2023-02-03T20:29:43;180.98;;;135.95;;
40555;SDS011;26250;45.422;11.100;2023-02-03T20:32:10;183.57;;;135.95;;
40555;SDS011;26250;45.422;11.100;2023-02-03T20:34:37;169.32;;;131.35;;
40555;SDS011;26250;45.422;11.100;2023-02-03T20:37:04;183.95;;;133.23;;
40555;SDS011;26250;45.422;11.100;2023-02-03T20:39:33;159.23;;;128.50;;
40555;SDS011;26250;45.422;11.100;2023-02-03T20:42:00;178.60;;;133.68;;
40555;SDS011;26250;45.422;11.100;2023-02-03T20:44:27;185.30;;;129.85;;
40555;SDS011;26250;45.422;11.100;2023-02-03T20:46:54;166.88;;;127.35;;
40555;SDS011;26250;45.422;11.100;2023-02-03T20:49:21;191.48;;;133.52;;
40555;SDS011;26250;45.422;11.100;2023-02-03T20:51:48;174.00;;;129.88;;
40555;SDS011;26250;45.422;11.100;2023-02-03T20:54:18;171.57;;;128.32;;
40555;SDS011;26250;45.422;11.100;2023-02-03T20:56:47;166.95;;;125.70;;
40555;SDS011;26250;45.422;11.100;2023-02-03T20:59:17;168.02;;;126.72;;
40555;SDS011;26250;45.422;11.100;2023-02-03T21:01:45;167.20;;;127.53;;
40555;SDS011;26250;45.422;11.100;2023-02-03T21:04:13;157.93;;;122.60;;
40555;SDS011;26250;45.422;11.100;2023-02-03T21:06:59;159.50;;;123.93;;
40555;SDS011;26250;45.422;11.100;2023-02-03T21:09:31;157.52;;;124.20;;
40555;SDS011;26250;45.422;11.100;2023-02-03T21:11:58;153.00;;;122.57;;
40555;SDS011;26250;45.422;11.100;2023-02-03T21:14:28;166.07;;;120.07;;
40555;SDS011;26250;45.422;11.100;2023-02-03T21:17:12;159.25;;;123.97;;
40555;SDS011;26250;45.422;11.100;2023-02-03T21:19:40;143.38;;;120.47;;
40555;SDS011;26250;45.422;11.100;2023-02-03T21:22:20;173.75;;;125.65;;
